Weather at Ellinopyrgos Heliport

Public forecast

Using degrees Celsius for public forecast. Weather courtesy of forecast.io.

Closest aviation weather report (METAR) to Ellinopyrgos Heliport

Closest report is Larissa Air Base, 36.7 nm (68.0 km) ENE.

2024/05/21 06:50 (retrieved 58 minutes ago)

LGLR 210650Z 06004KT CAVOK 23/13 Q1015 BLU

Closest aviation forecast (TAF) to Ellinopyrgos Heliport

Closest forecast is Aktion National Airport, 53.7 nm (99.4 km) WSW.

2024/05/21 06:16 (retrieved 2 hours ago)

TAF LGPZ 210500Z 2106/2206 10010KT 9999 FEW025 BECMG 2108/2110 16010KT BECMG 2113/2115 22010KT BECMG 2120/2122 VRB03KT